Axton, VA

6:09 PM EDT on August 21, 2014 (GMT -0400)
KVAAXTON2 | Change Station
CLOSE
Current Station
Personal Weather Station
Location: Axton, VA
Elevation: 930 ft
Nearby Weather Stations

Elev 930 ft 36.66 °N, 79.68 °W | Updated 5 seconds ago

Clear
Clear
84.2 °F
Feels Like 83 °F
N
0.0
Wind Variable Wind from North
Gusts 0.0 mph

Today
High -- | Low -- °F
--% Chance of Precip.
Yesterday
High -- | Low -- °F
Precip. -- in
6:41 AM 8:02 PM
Waning Crescent, 12% visible
Pressure 30.05 in
Visibility 10.0 miles
Clouds Clear
Heat Index 83 °F
Dew Point 54 °F
Humidity 35%
Rainfall 0.00 in
Snow Depth Not available.
UV 2 out of 12
Pollen 9.00 out of 12
Air Quality Not available.
Flu Activity Not available.
METAR KSIF 212155Z AUTO 21004KT 10SM CLR 31/22 A3005 RMK AO2 T03050217

More Conditions Fewer Conditions

Pressure 30.05 in
Visibility 10.0 miles
Clouds Clear
Heat Index 83 °F
Dew Point 54 °F
Humidity 35%
Rainfall 0.00 in
Snow Depth Not available.
UV 2 out of 12
Pollen 9.00 out of 12
Air Quality Not available.
Flu Activity Not available.
METAR KSIF 212155Z AUTO 21004KT 10SM CLR 31/22 A3005 RMK AO2 T03050217

More Conditions Fewer Conditions

10-Day Weather Forecast

Almanac

Astronomy

Aug. 21, 2014 Rise Set
Actual Time 6:41 AM EDT 8:02 PM EDT
Civil Twilight 6:14 AM EDT 8:29 PM EDT
Nautical Twilight 5:41 AM EDT 9:01 PM EDT
Astronomical Twilight 5:07 AM EDT 9:35 PM EDT
Moon 3:12 AM EDT 5:27 PM EDT
Length of Visible Light 14h 15m
Length of Day
13h 21m
Tomorrow will be 2m 8s shorter.
Waning Crescent, 12% of the Moon is Illuminated
Today
Waning Crescent
Aug 25
New
Sep 2
First Quarter
Sep 8
Full
Sep 15
Last Quarter

Today's Extremes

State Highs State Lows

Community

WunderPhotos

Upload Photos

1,746,033 photos uploaded!

WunderBlogs® & News

Nearby

Snow Depth

Station Depth Elevation
No new snow has been reported.

Earthquake Activity

City Distance Mag. Time & Date
No recent earthquake activity has been reported nearby.
Minimum magnitude displayed is 2.5.

Coastal Water Temperatures

Place Temperature
No Stations Reporting

Nearby Weather Stations